Latest Weather Observations for Sydney Harbour

IDN60801

Issued at 2:53 am EDT Friday 29 January 2021 (issued every 10 minutes, with the page automatically refreshed every 10 minutes)

About weather observations | Map of weather stations | Latest weather observations for NSW | Other Formats
Station Details ID: 066196 Name: WEDDING CAKE WEST Lat: -33.84 Lon: 151.26 Height: 6.0 m
Data from the previous 72 hours. | See also: Recent months at Sydney Harbour
Date/Time
EDT
Temp
°C
App
Temp
°C
Dew
Point
°C
Rel
Hum
%
Delta-T
°C
Wind Press
QNH
hPa
Press
MSL
hPa
Rain since
9am
mm
Dir  Spd
km/h
Gust
km/h
Spd
kts
Gust
kts
29/02:30am 19.7 - - - - ESE 24 32 13 17 - - -
29/02:00am 20.6 - - - - SE 22 30 12 16 - - -
29/01:30am 20.4 - - - - ESE 26 32 14 17 - - -
29/01:00am 20.6 - - - - ENE 28 37 15 20 - - -
29/12:30am 22.0 - - - - ESE 22 30 12 16 - - -
29/12:00am 22.0 - - - - ESE 20 26 11 14 - - -
 
Date/Time
EDT
Temp
°C
App
Temp
°C
Dew
Point
°C
Rel
Hum
%
Delta-T
°C
Wind Press
QNH
hPa
Press
MSL
hPa
Rain since
9am
mm
Dir  Spd
km/h
Gust
km/h
Spd
kts
Gust
kts
28/11:30pm 22.0 - - - - ESE 20 26 11 14 - - -
28/11:00pm 22.0 - - - - ESE 20 28 11 15 - - -
28/10:30pm 21.9 - - - - ESE 17 22 9 12 - - -
28/10:00pm 21.8 - - - - E 24 35 13 19 - - -
28/09:30pm 21.2 - - - - ESE 22 30 12 16 - - -
28/09:00pm 20.0 - - - - S 20 24 11 13 - - -
28/08:30pm 20.0 - - - - SSE 26 37 14 20 - - -
28/08:00pm 20.2 - - - - S 22 30 12 16 - - -
28/07:30pm 20.4 - - - - SSE 24 33 13 18 - - -
28/07:00pm 19.9 - - - - SSE 24 32 13 17 - - -
28/06:30pm 20.1 - - - - SSE 30 41 16 22 - - -
28/06:00pm 20.5 - - - - SSE 24 33 13 18 - - -
28/05:30pm 20.3 - - - - SE 28 35 15 19 - - -
28/05:00pm 20.4 - - - - SE 30 37 16 20 - - -
28/04:30pm 20.9 - - - - SE 28 37 15 20 - - -
28/04:00pm 21.2 - - - - SSE 22 30 12 16 - - -
28/03:30pm 20.6 - - - - SE 24 35 13 19 - - -
28/03:00pm 20.5 - - - - ESE 28 37 15 20 - - -
28/02:30pm 21.5 - - - - SE 26 39 14 21 - - -
28/02:00pm 21.5 - - - - SE 28 37 15 20 - - -
28/01:30pm 21.5 - - - - SSE 20 30 11 16 - - -
28/01:00pm 21.4 - - - - SSE 30 39 16 21 - - -
28/12:30pm 21.1 - - - - SE 30 41 16 22 - - -
28/12:00pm 20.5 - - - - SSE 28 41 15 22 - - -
28/11:30am 20.8 - - - - SSE 26 39 14 21 - - -
28/11:00am 20.3 - - - - SSE 30 43 16 23 - - -
28/10:30am 20.7 - - - - SSE 26 32 14 17 - - -
28/10:00am 20.1 - - - - SE 30 39 16 21 - - -
28/09:30am 20.6 - - - - SSE 26 35 14 19 - - -
28/09:00am 20.9 - - - - SE 28 35 15 19 - - -
28/08:30am 21.0 - - - - SSE 26 35 14 19 - - -
28/08:00am 20.6 - - - - SSE 24 33 13 18 - - -
28/07:30am 20.0 - - - - SSE 30 39 16 21 - - -
28/07:00am 20.1 - - - - SSE 28 35 15 19 - - -
28/06:30am 21.2 - - - - SSE 28 35 15 19 - - -
28/06:00am 21.1 - - - - SSE 28 35 15 19 - - -
28/05:30am 20.7 - - - - SSE 28 37 15 20 - - -
28/05:00am 20.6 - - - - SSE 32 41 17 22 - - -
28/04:30am 21.1 - - - - SSE 28 37 15 20 - - -
28/04:00am 21.0 - - - - SSE 32 41 17 22 - - -
28/03:30am 20.9 - - - - SSE 28 39 15 21 - - -
28/03:00am 20.6 - - - - SSE 24 32 13 17 - - -
28/02:30am 20.2 - - - - SSE 24 33 13 18 - - -
28/02:00am 20.1 - - - - SE 26 35 14 19 - - -
28/01:30am 19.9 - - - - SSE 24 33 13 18 - - -
28/01:00am 19.8 - - - - SSE 28 39 15 21 - - -
28/12:30am 19.9 - - - - SSE 28 35 15 19 - - -
28/12:00am 20.2 - - - - SSE 28 39 15 21 - - -
 
Date/Time
EDT
Temp
°C
App
Temp
°C
Dew
Point
°C
Rel
Hum
%
Delta-T
°C
Wind Press
QNH
hPa
Press
MSL
hPa
Rain since
9am
mm
Dir  Spd
km/h
Gust
km/h
Spd
kts
Gust
kts
27/11:30pm 20.4 - - - - SSE 24 35 13 19 - - -
27/11:00pm 20.3 - - - - SSE 26 43 14 23 - - -
27/10:30pm 20.0 - - - - SSE 24 32 13 17 - - -
27/10:00pm 19.7 - - - - SSE 26 35 14 19 - - -
27/09:30pm 19.3 - - - - SSE 28 39 15 21 - - -
27/09:00pm 19.2 - - - - SSE 28 37 15 20 - - -
27/08:30pm 19.6 - - - - S 26 33 14 18 - - -
27/08:00pm 19.4 - - - - S 28 41 15 22 - - -
27/07:30pm 20.1 - - - - SSE 28 35 15 19 - - -
27/07:00pm 20.2 - - - - SSE 26 37 14 20 - - -
27/06:30pm 20.6 - - - - S 26 35 14 19 - - -
27/06:00pm 20.3 - - - - SSW 24 28 13 15 - - -
27/05:30pm 20.6 - - - - SSW 32 41 17 22 - - -
27/05:00pm 21.4 - - - - SSW 33 41 18 22 - - -
27/04:30pm 21.1 - - - - SSW 35 46 19 25 - - -
27/04:00pm 21.0 - - - - SSW 32 43 17 23 - - -
27/03:30pm 20.9 - - - - SSW 33 44 18 24 - - -
27/03:00pm 21.3 - - - - S 35 44 19 24 - - -
27/02:30pm 21.1 - - - - S 35 46 19 25 - - -
27/02:00pm 20.6 - - - - S 35 46 19 25 - - -
27/01:30pm 21.1 - - - - S 35 46 19 25 - - -
27/01:04pm 21.3 - - - - S 35 54 19 29 - - -
27/01:00pm 21.4 - - - - S 35 48 19 26 - - -
27/12:47pm 21.3 - - - - S 39 57 21 31 - - -
27/12:30pm 21.2 - - - - S 41 54 22 29 - - -
27/12:00pm 20.9 - - - - S 43 56 23 30 - - -
27/11:40am 20.8 - - - - S 39 57 21 31 - - -
27/11:30am 20.8 - - - - S 35 52 19 28 - - -
27/11:07am 20.8 - - - - S 33 54 18 29 - - -
27/11:00am 20.9 - - - - S 37 52 20 28 - - -
27/10:30am 21.0 - - - - S 35 48 19 26 - - -
27/10:00am 21.5 - - - - S 33 43 18 23 - - -
27/09:30am 21.4 - - - - S 35 44 19 24 - - -
27/09:03am 21.3 - - - - S 35 54 19 29 - - -
27/09:00am 21.3 - - - - S 39 54 21 29 - - -
27/08:30am 21.3 - - - - S 39 50 21 27 - - -
27/08:00am 21.4 - - - - S 43 54 23 29 - - -
27/07:30am 21.9 - - - - SSW 43 54 23 29 - - -
27/07:25am 21.9 - - - - SSW 41 59 22 32 - - -
27/07:00am 21.6 - - - - SSW 39 52 21 28 - - -
27/06:33am 21.5 - - - - SSW 37 56 20 30 - - -
27/06:30am 21.4 - - - - SSW 37 50 20 27 - - -
27/06:00am 21.7 - - - - SSW 39 50 21 27 - - -
27/05:30am 21.7 - - - - SSW 39 50 21 27 - - -
27/05:00am 22.0 - - - - SSW 37 46 20 25 - - -
27/04:30am 22.3 - - - - SSW 39 48 21 26 - - -
27/04:00am 22.9 - - - - SSW 33 41 18 22 - - -
27/03:30am 24.2 - - - - SSW 28 37 15 20 - - -
27/03:00am 24.5 - - - - S 26 35 14 19 - - -
27/02:30am 24.4 - - - - SSW 24 30 13 16 - - -
27/02:00am 24.2 - - - - S 24 30 13 16 - - -
27/01:30am 24.1 - - - - S 22 30 12 16 - - -
27/01:00am 23.8 - - - - S 22 30 12 16 - - -
27/12:30am 24.2 - - - - SSE 35 48 19 26 - - -
27/12:09am 24.2 - - - - SSE 35 48 19 26 - - -
27/12:00am 24.3 - - - - S 32 41 17 22 - - -
 
Date/Time
EDT
Temp
°C
App
Temp
°C
Dew
Point
°C
Rel
Hum
%
Delta-T
°C
Wind Press
QNH
hPa
Press
MSL
hPa
Rain since
9am
mm
Dir  Spd
km/h
Gust
km/h
Spd
kts
Gust
kts
26/11:30pm 24.5 - - - - S 33 43 18 23 - - -
26/11:00pm 24.9 - - - - S 35 46 19 25 - - -
26/10:30pm 26.3 - - - - SSW 39 52 21 28 - - -
26/10:00pm 27.1 - - - - S 32 43 17 23 - - -
26/09:56pm 26.9 - - - - S 28 43 15 23 - - -
26/09:30pm 25.2 - - - - NE 9 15 5 8 - - -
26/09:00pm 26.7 - - - - N 22 37 12 20 - - -
26/08:42pm 25.3 - - - - N 26 39 14 21 - - -
26/08:30pm 25.0 - - - - NNE 37 43 20 23 - - -
26/08:00pm 25.9 - - - - NNE 44 56 24 30 - - -
26/07:30pm 25.9 - - - - NNE 44 54 24 29 - - -
26/07:00pm 26.4 - - - - N 39 46 21 25 - - -
26/06:30pm 25.7 - - - - N 37 46 20 25 - - -
26/06:00pm 25.2 - - - - NNE 37 46 20 25 - - -
26/05:30pm 25.6 - - - - NNE 43 52 23 28 - - -
26/05:00pm 25.7 - - - - NNE 43 52 23 28 - - -
26/04:30pm 26.3 - - - - NNE 43 52 23 28 - - -
26/04:00pm 26.1 - - - - NNE 43 46 23 25 - - -
26/03:30pm 25.9 - - - - N 32 43 17 23 - - -
26/03:00pm 26.3 - - - - N 32 41 17 22 - - -
26/02:30pm 27.0 - - - - N 26 33 14 18 - - -
26/02:00pm 28.1 - - - - NNE 28 33 15 18 - - -
26/01:30pm 28.6 - - - - NNE 15 24 8 13 - - -
26/01:00pm 26.8 - - - - NNE 9 13 5 7 - - -
26/12:30pm 26.3 - - - - NE 13 19 7 10 - - -
26/12:00pm 26.0 - - - - NE 11 22 6 12 - - -
26/11:30am 27.2 - - - - NNE 13 17 7 9 - - -
26/11:00am 26.0 - - - - NNE 13 19 7 10 - - -
26/10:30am 24.8 - - - - NNE 22 26 12 14 - - -
26/10:00am 24.5 - - - - NNE 17 20 9 11 - - -
26/09:30am 24.3 - - - - NNE 19 20 10 11 - - -
26/09:00am 23.0 - - - - N 20 24 11 13 - - -
26/08:30am 23.0 - - - - NNE 20 22 11 12 - - -
26/08:00am 22.7 - - - - NNE 13 15 7 8 - - -
26/07:30am 22.3 - - - - NNE 11 13 6 7 - - -
26/07:00am 22.3 - - - - N 9 9 5 5 - - -
26/06:30am 22.0 - - - - N 6 7 3 4 - - -
26/06:00am 22.2 - - - - NNE 13 15 7 8 - - -
26/05:30am 22.2 - - - - NNE 13 15 7 8 - - -
26/05:00am 22.2 - - - - NNE 19 20 10 11 - - -
26/04:30am 22.2 - - - - NNE 17 17 9 9 - - -
26/04:00am 22.3 - - - - NNE 19 22 10 12 - - -
26/03:30am 22.4 - - - - NNE 17 20 9 11 - - -
26/03:00am 22.6 - - - - NNE 19 20 10 11 - - -

Other formats

Comma delimited format used in spreadsheet applications
http://www.bom.gov.au/fwo/IDN60801/IDN60801.95766.axf

JavaScript Object Notation format (JSON) in row-major order
http://www.bom.gov.au/fwo/IDN60801/IDN60801.95766.json

Data quality

Most of these data are generated automatically and are frequently updated. Quality checks on data are not normally performed. It is possible for incorrect values to appear. Refer to information at About Latest Weather Observations and please check the disclaimer before using these data.